Time;durP1;ratioP1;P1;durP2;ratioP2;P2;SDS_P1;SDS_P2;PMS_P1;PMS_P2;Temp;Humidity;BMP_temperature;BMP_pressure;BME280_temperature;BME280_humidity;BME280_pressure;Samples;Min_cycle;Max_cycle;Signal;HPM_P1;HPM_P2
2023/09/30 00:01:39;;;;;;;23.50;14.60;;;;;;;15.79;100.00;101080.97;4973462;28;20029;-67
2023/09/30 00:04:05;;;;;;;20.13;13.25;;;;;;;15.72;100.00;101063.97;4973598;28;20117;-69
2023/09/30 00:06:30;;;;;;;24.90;14.48;;;;;;;15.85;100.00;101079.38;4972574;28;20035;-68
2023/09/30 00:08:57;;;;;;;16.10;12.68;;;;;;;15.89;100.00;101082.50;4972141;28;20031;-67
2023/09/30 00:11:22;;;;;;;17.98;12.75;;;;;;;15.96;100.00;101088.81;4971993;28;20026;-67
2023/09/30 00:13:49;;;;;;;16.17;12.75;;;;;;;15.95;100.00;101089.84;4973359;28;20042;-69
2023/09/30 00:16:17;;;;;;;19.10;13.52;;;;;;;15.88;100.00;101075.47;4973133;28;20081;-67
2023/09/30 00:18:43;;;;;;;18.48;14.13;;;;;;;15.80;100.00;101065.69;4973178;28;20498;-68
2023/09/30 00:21:08;;;;;;;16.67;13.40;;;;;;;15.82;100.00;101062.81;4973144;28;20070;-68
2023/09/30 00:23:34;;;;;;;19.85;14.20;;;;;;;15.94;100.00;101078.25;4973253;28;20447;-70
2023/09/30 00:26:00;;;;;;;15.50;13.05;;;;;;;15.87;100.00;101063.91;4973152;28;20174;-69
2023/09/30 00:28:26;;;;;;;21.27;13.85;;;;;;;15.89;100.00;101066.41;4973189;28;20035;-65
2023/09/30 00:30:52;;;;;;;20.48;14.73;;;;;;;15.87;100.00;101063.06;4973125;28;20033;-66
2023/09/30 00:33:18;;;;;;;16.63;13.70;;;;;;;15.93;100.00;101075.78;4973240;28;20409;-67
2023/09/30 00:35:43;;;;;;;19.15;14.20;;;;;;;15.94;100.00;101072.06;4973070;28;20042;-68
2023/09/30 00:38:10;;;;;;;15.40;12.40;;;;;;;15.89;100.00;101059.19;4973023;28;20062;-70
2023/09/30 00:40:36;;;;;;;17.20;12.98;;;;;;;15.93;100.00;101060.50;4972899;28;20034;-65
2023/09/30 00:43:02;;;;;;;21.35;14.50;;;;;;;15.82;100.00;101044.84;4972615;28;20019;-70
2023/09/30 00:45:28;;;;;;;18.50;13.93;;;;;;;15.72;100.00;101036.28;4973383;28;20085;-66
2023/09/30 00:47:54;;;;;;;18.17;13.73;;;;;;;15.88;100.00;101060.19;4973131;28;20035;-69
2023/09/30 00:50:20;;;;;;;16.85;13.60;;;;;;;15.79;100.00;101040.69;4973203;28;20312;-68
2023/09/30 00:52:48;;;;;;;18.88;13.75;;;;;;;15.71;100.00;101030.06;4973128;28;20022;-67
2023/09/30 00:55:15;;;;;;;14.93;12.90;;;;;;;15.74;100.00;101039.59;4971926;28;20038;-70
2023/09/30 00:57:41;;;;;;;19.42;13.73;;;;;;;15.47;100.00;100987.44;4971403;28;20062;-66
2023/09/30 01:00:11;;;;;;;19.97;15.00;;;;;;;15.74;100.00;101035.06;4971465;28;20023;-66
2023/09/30 01:02:40;;;;;;;17.08;13.55;;;;;;;15.72;100.00;101021.00;4972901;28;20031;-67
2023/09/30 01:05:07;;;;;;;18.10;13.05;;;;;;;15.83;100.00;101026.88;4972931;28;20042;-68
2023/09/30 01:07:34;;;;;;;21.60;14.18;;;;;;;15.82;100.00;101030.59;4972794;28;20027;-69
2023/09/30 01:10:00;;;;;;;15.10;13.13;;;;;;;15.63;100.00;101000.66;4973200;28;20039;-67
2023/09/30 01:12:26;;;;;;;22.83;14.23;;;;;;;15.55;100.00;100981.94;4972982;28;20031;-69
2023/09/30 01:14:57;;;;;;;19.38;13.27;;;;;;;15.62;100.00;100990.13;4973050;28;20430;-68
2023/09/30 01:17:23;;;;;;;17.77;13.60;;;;;;;15.67;100.00;100996.56;4974184;28;20038;-66
2023/09/30 01:19:49;;;;;;;22.33;14.55;;;;;;;15.32;100.00;100943.69;4976758;28;20131;-70
2023/09/30 01:22:16;;;;;;;18.00;14.23;;;;;;;15.69;100.00;100999.06;4984225;28;20046;-68
2023/09/30 01:24:42;;;;;;;22.45;14.43;;;;;;;15.63;100.00;100989.94;4984202;28;20086;-67
2023/09/30 01:27:09;;;;;;;22.55;14.20;;;;;;;15.48;100.00;100956.88;4985091;28;20044;-66
2023/09/30 01:29:38;;;;;;;17.23;14.77;;;;;;;15.31;100.00;100936.66;4976489;28;20502;-67
2023/09/30 01:32:09;;;;;;;17.63;14.07;;;;;;;15.43;100.00;100962.81;4974889;28;20454;-66
2023/09/30 01:34:35;;;;;;;16.67;14.87;;;;;;;15.54;100.00;100980.28;4974846;28;20030;-66
2023/09/30 01:37:01;;;;;;;19.33;15.83;;;;;;;15.50;100.00;100968.25;4975828;28;20046;-70
2023/09/30 01:39:27;;;;;;;21.03;15.47;;;;;;;15.52;100.00;100982.31;4976075;28;20077;-68
2023/09/30 01:41:53;;;;;;;20.93;16.03;;;;;;;15.57;100.00;100985.25;4958512;28;20081;-68
2023/09/30 01:44:19;;;;;;;19.60;15.70;;;;;;;15.52;100.00;100968.06;4979106;28;20034;-67
2023/09/30 01:46:45;;;;;;;22.30;15.83;;;;;;;15.47;100.00;100952.53;4982549;28;20031;-67
2023/09/30 01:49:10;;;;;;;21.47;16.80;;;;;;;15.51;100.00;100959.19;4979576;28;20050;-66
2023/09/30 01:51:36;;;;;;;22.37;15.70;;;;;;;15.53;100.00;100949.09;4978349;28;20057;-68
2023/09/30 01:54:01;;;;;;;20.33;15.73;;;;;;;15.43;100.00;100929.78;4975829;28;20070;-68
2023/09/30 01:56:27;;;;;;;20.93;15.73;;;;;;;15.68;100.00;100966.03;4975558;28;20038;-70
2023/09/30 01:58:53;;;;;;;19.47;15.13;;;;;;;15.62;100.00;100944.47;4975584;28;20385;-69
2023/09/30 02:01:18;;;;;;;19.33;15.57;;;;;;;15.65;100.00;100944.94;4975516;28;20031;-67
2023/09/30 02:03:44;;;;;;;21.03;15.57;;;;;;;15.68;100.00;100954.44;4974134;28;20033;-69
2023/09/30 02:06:10;;;;;;;22.83;17.17;;;;;;;15.62;100.00;100936.44;4975267;28;20034;-69
2023/09/30 02:08:36;;;;;;;22.70;16.43;;;;;;;15.58;100.00;100922.53;4975299;28;20035;-69
2023/09/30 02:11:02;;;;;;;21.83;16.97;;;;;;;15.64;100.00;100935.22;4975351;28;20108;-69
2023/09/30 02:13:28;;;;;;;22.45;16.85;;;;;;;15.59;100.00;100924.19;4975287;28;20027;-68
2023/09/30 02:15:55;;;;;;;22.73;18.07;;;;;;;15.51;100.00;100905.50;4975884;28;20038;-69
2023/09/30 02:18:21;;;;;;;21.07;16.10;;;;;;;15.64;100.00;100931.69;4976023;28;20121;-68
2023/09/30 02:20:47;;;;;;;20.88;16.95;;;;;;;15.66;100.00;100930.47;4975209;28;20121;-67
2023/09/30 02:23:15;;;;;;;21.83;18.00;;;;;;;15.58;100.00;100916.28;4975429;28;20530;-69
2023/09/30 02:25:43;;;;;;;23.42;18.48;;;;;;;15.67;100.00;100934.00;4974805;28;20146;-66
2023/09/30 02:28:09;;;;;;;26.63;21.27;;;;;;;15.63;100.00;100927.34;4974547;28;20035;-67
2023/09/30 02:30:35;;;;;;;24.10;18.67;;;;;;;15.67;100.00;100937.50;4974459;28;20482;-68
2023/09/30 02:33:03;;;;;;;26.30;18.45;;;;;;;15.64;100.00;100920.97;4975017;28;20042;-67
2023/09/30 02:35:29;;;;;;;21.77;18.97;;;;;;;15.56;100.00;100903.06;4975063;28;20073;-69
2023/09/30 02:37:54;;;;;;;26.55;20.13;;;;;;;15.52;100.00;100891.06;4973840;28;20062;-66
2023/09/30 02:40:20;;;;;;;23.98;20.58;;;;;;;15.54;100.00;100894.38;4974843;28;20085;-68
2023/09/30 02:42:46;;;;;;;26.67;19.80;;;;;;;15.61;100.00;100903.38;4974832;28;20497;-70
2023/09/30 02:45:12;;;;;;;23.93;19.03;;;;;;;15.64;100.00;100904.84;4974586;28;20035;-67
2023/09/30 02:47:39;;;;;;;23.85;19.35;;;;;;;15.65;100.00;100901.13;4974624;28;20038;-65
2023/09/30 02:50:08;;;;;;;26.92;18.75;;;;;;;15.47;100.00;100872.00;4973412;28;20031;-68
2023/09/30 02:52:34;;;;;;;21.13;18.05;;;;;;;15.65;100.00;100906.50;4974382;28;20022;-69
2023/09/30 02:55:00;;;;;;;25.00;19.83;;;;;;;15.48;100.00;100879.88;4974605;28;20026;-68
2023/09/30 02:57:27;;;;;;;26.38;19.33;;;;;;;15.57;100.00;100893.16;4974661;28;20026;-68
2023/09/30 02:59:54;;;;;;;21.70;17.73;;;;;;;15.58;100.00;100889.44;4974483;28;20035;-67
2023/09/30 03:02:21;;;;;;;24.97;17.50;;;;;;;15.58;100.00;100884.09;4974233;28;20255;-68
2023/09/30 03:04:47;;;;;;;23.87;18.07;;;;;;;15.48;100.00;100863.78;4973269;28;20093;-69
2023/09/30 03:07:14;;;;;;;24.00;18.73;;;;;;;15.64;100.00;100886.06;4974457;28;20130;-67
2023/09/30 03:09:39;;;;;;;26.37;18.50;;;;;;;15.66;100.00;100878.63;4974496;28;20038;-69
2023/09/30 03:12:05;;;;;;;22.23;17.38;;;;;;;15.41;100.00;100836.03;4974193;28;20121;-70
2023/09/30 03:14:31;;;;;;;20.27;16.13;;;;;;;15.76;100.00;100884.50;4974185;28;20065;-67
2023/09/30 03:16:58;;;;;;;19.75;17.02;;;;;;;15.63;100.00;100861.06;4973851;28;20031;-66
2023/09/30 03:19:24;;;;;;;20.23;15.97;;;;;;;15.77;100.00;100883.47;4974189;28;20517;-72
2023/09/30 03:21:50;;;;;;;22.42;15.65;;;;;;;15.70;100.00;100866.47;4976009;28;20042;-67
2023/09/30 03:24:16;;;;;;;18.20;16.20;;;;;;;15.69;100.00;100865.66;4975553;28;20027;-69
2023/09/30 03:26:43;;;;;;;22.57;16.83;;;;;;;15.68;100.00;100864.00;4976113;28;20047;-67
2023/09/30 03:29:09;;;;;;;20.30;15.90;;;;;;;15.60;100.00;100845.31;4979307;28;20046;-69
2023/09/30 03:31:35;;;;;;;18.58;15.98;;;;;;;15.69;100.00;100859.47;4976855;28;20030;-64
2023/09/30 03:34:03;;;;;;;24.85;17.02;;;;;;;15.68;100.00;100858.63;4974326;28;20041;-68
2023/09/30 03:36:29;;;;;;;19.70;15.85;;;;;;;15.54;100.00;100851.44;4973854;28;20505;-68
2023/09/30 03:38:55;;;;;;;19.80;17.80;;;;;;;15.58;100.00;100846.50;4973713;28;20035;-69
2023/09/30 03:41:24;;;;;;;21.77;16.80;;;;;;;15.62;100.00;100848.66;4973373;28;20165;-66
2023/09/30 03:43:49;;;;;;;26.15;16.60;;;;;;;15.59;100.00;100838.28;4973561;28;20031;-68
2023/09/30 03:46:15;;;;;;;20.30;16.05;;;;;;;15.55;100.00;100828.94;4973411;28;20089;-70
2023/09/30 03:48:42;;;;;;;22.83;16.17;;;;;;;15.58;100.00;100830.41;4973555;28;20035;-67
2023/09/30 03:51:14;;;;;;;22.90;17.15;;;;;;;15.59;100.00;100837.47;4974564;28;20035;-67
2023/09/30 03:53:41;;;;;;;24.17;17.83;;;;;;;15.45;100.00;100805.13;4974819;28;20144;-66
2023/09/30 03:56:07;;;;;;;18.98;16.48;;;;;;;15.58;100.00;100825.03;4973459;28;20390;-67
2023/09/30 03:58:32;;;;;;;21.55;17.25;;;;;;;15.53;100.00;100812.19;4973366;28;20022;-71
2023/09/30 04:01:00;;;;;;;21.63;16.05;;;;;;;15.63;100.00;100823.47;4973159;28;20061;-68
2023/09/30 04:03:27;;;;;;;22.43;17.30;;;;;;;15.62;100.00;100821.00;4973312;28;20470;-69
2023/09/30 04:05:53;;;;;;;24.17;18.10;;;;;;;15.63;100.00;100834.22;4972331;28;20042;-69
2023/09/30 04:08:19;;;;;;;22.88;18.67;;;;;;;15.55;100.00;100818.19;4973603;28;20089;-68
2023/09/30 04:10:44;;;;;;;19.90;17.77;;;;;;;15.14;100.00;100753.66;4973242;28;20026;-68
2023/09/30 04:13:11;;;;;;;22.70;18.57;;;;;;;15.45;100.00;100804.28;4973243;28;20458;-67
2023/09/30 04:15:37;;;;;;;28.35;17.80;;;;;;;15.54;100.00;100819.22;4973691;28;20109;-67
2023/09/30 04:18:05;;;;;;;23.92;19.83;;;;;;;15.51;100.00;100824.97;4980620;28;20030;-66
2023/09/30 04:20:31;;;;;;;25.98;17.73;;;;;;;15.48;100.00;100820.81;4980595;28;20034;-70
2023/09/30 04:22:57;;;;;;;21.87;18.03;;;;;;;15.40;100.00;100809.41;4973083;28;20621;-67
2023/09/30 04:25:27;;;;;;;20.42;16.85;;;;;;;15.45;100.00;100813.16;4972991;28;20046;-69
2023/09/30 04:27:53;;;;;;;25.87;20.03;;;;;;;15.41;100.00;100805.69;4973035;28;20034;-68
2023/09/30 04:30:19;;;;;;;29.27;21.33;;;;;;;15.48;100.00;100804.72;4973252;28;20487;-66
2023/09/30 04:32:45;;;;;;;29.95;22.40;;;;;;;15.46;100.00;100796.03;4973210;28;20039;-67
2023/09/30 04:35:11;;;;;;;24.97;21.40;;;;;;;15.45;100.00;100788.19;4971835;28;20041;-67
2023/09/30 04:37:37;;;;;;;26.70;22.80;;;;;;;15.53;100.00;100798.78;4973094;28;20031;-66
2023/09/30 04:40:19;;;;;;;25.17;22.48;;;;;;;15.55;100.00;100807.47;4972935;28;20038;-68
2023/09/30 04:42:46;;;;;;;29.83;22.33;;;;;;;15.47;100.00;100786.97;4971802;28;20066;-68
2023/09/30 04:45:13;;;;;;;31.77;23.43;;;;;;;15.51;100.00;100792.75;4973047;28;20031;-66
2023/09/30 04:47:39;;;;;;;35.13;23.03;;;;;;;15.59;100.00;100807.94;4973537;28;20143;-67
2023/09/30 04:50:08;;;;;;;27.40;22.73;;;;;;;15.61;100.00;100808.56;4973126;28;20122;-68
2023/09/30 04:52:37;;;;;;;27.93;22.20;;;;;;;15.57;100.00;100785.78;4974997;28;20485;-71
2023/09/30 04:55:05;;;;;;;31.27;23.67;;;;;;;15.46;100.00;100768.38;4976531;28;20077;-69
2023/09/30 04:57:34;;;;;;;29.15;22.15;;;;;;;15.48;100.00;100783.25;4976925;28;20096;-70
2023/09/30 04:59:59;;;;;;;23.17;19.25;;;;;;;15.40;100.00;100758.41;4977218;28;20034;-67
2023/09/30 05:02:27;;;;;;;27.60;21.10;;;;;;;15.23;100.00;100730.19;4976746;28;20530;-69
2023/09/30 05:04:54;;;;;;;25.95;20.98;;;;;;;15.42;100.00;100751.00;4976707;28;20031;-66
2023/09/30 05:07:22;;;;;;;29.47;23.03;;;;;;;15.22;100.00;100717.81;4976413;28;20441;-69
2023/09/30 05:09:48;;;;;;;27.20;21.80;;;;;;;15.48;100.00;100750.22;4976478;28;20019;-66
2023/09/30 05:12:14;;;;;;;24.60;19.43;;;;;;;15.61;100.00;100771.84;4976446;28;20023;-69
2023/09/30 05:14:40;;;;;;;27.80;19.57;;;;;;;15.53;100.00;100763.88;4975309;28;20022;-67
2023/09/30 05:17:06;;;;;;;26.50;19.53;;;;;;;15.60;100.00;100764.78;4976420;28;20045;-68
2023/09/30 05:19:36;;;;;;;34.03;20.15;;;;;;;15.52;100.00;100730.00;4976290;28;20092;-66
2023/09/30 05:22:02;;;;;;;25.23;20.90;;;;;;;15.39;100.00;100719.19;4974939;28;20158;-68
2023/09/30 05:24:29;;;;;;;27.50;20.43;;;;;;;15.64;100.00;100755.34;4976222;28;20039;-68
2023/09/30 05:26:55;;;;;;;25.97;19.87;;;;;;;15.66;100.00;100747.09;4976024;28;20364;-65
2023/09/30 05:29:21;;;;;;;25.37;18.87;;;;;;;15.60;100.00;100740.63;4976124;28;20038;-68
2023/09/30 05:31:46;;;;;;;22.93;18.47;;;;;;;15.63;100.00;100744.78;4976095;28;20122;-69
2023/09/30 05:34:12;;;;;;;22.77;18.73;;;;;;;15.64;100.00;100733.84;4974859;28;20046;-67
2023/09/30 05:36:38;;;;;;;21.57;18.63;;;;;;;15.52;100.00;100713.91;4975757;28;20513;-70
2023/09/30 05:39:04;;;;;;;25.50;18.67;;;;;;;15.67;100.00;100741.53;4973470;28;20125;-68
2023/09/30 05:41:31;;;;;;;25.45;18.10;;;;;;;15.67;100.00;100732.63;4990453;28;20026;-68
2023/09/30 05:43:58;;;;;;;22.40;18.10;;;;;;;15.58;100.00;100706.91;4994323;28;20033;-71
2023/09/30 05:46:24;;;;;;;22.45;18.45;;;;;;;15.71;100.00;100729.34;4995355;28;20117;-66
2023/09/30 05:48:50;;;;;;;20.30;17.30;;;;;;;15.73;100.00;100727.31;4995192;28;20109;-70
2023/09/30 05:51:15;;;;;;;20.50;17.30;;;;;;;15.84;100.00;100739.34;4994830;28;20026;-69
2023/09/30 05:53:41;;;;;;;28.08;16.35;;;;;;;15.85;100.00;100735.63;4995014;28;20034;-67
2023/09/30 05:56:10;;;;;;;20.37;15.83;;;;;;;15.80;100.00;100728.16;4995173;28;20038;-67
2023/09/30 05:58:37;;;;;;;19.90;15.65;;;;;;;15.80;100.00;100721.97;4994959;28;20034;-68
2023/09/30 06:01:18;;;;;;;19.50;16.73;;;;;;;15.71;100.00;100697.13;4994708;28;20030;-66
2023/09/30 06:03:46;;;;;;;19.53;15.67;;;;;;;15.84;100.00;100722.41;4994379;28;20352;-67
2023/09/30 06:06:13;;;;;;;21.98;14.25;;;;;;;15.78;100.00;100708.75;4994933;28;20033;-69
2023/09/30 06:08:39;;;;;;;18.10;14.40;;;;;;;15.82;100.00;100708.34;4994644;28;20085;-66
2023/09/30 06:11:05;;;;;;;20.65;14.52;;;;;;;15.84;100.00;100706.28;4994497;28;20030;-68
2023/09/30 06:13:33;;;;;;;20.70;13.52;;;;;;;15.93;100.00;100718.53;4993460;28;20022;-67
2023/09/30 06:15:58;;;;;;;19.55;13.13;;;;;;;15.93;100.00;100705.94;4994864;28;20034;-69
2023/09/30 06:18:24;;;;;;;18.85;14.35;;;;;;;15.90;100.00;100698.28;4994730;28;20034;-69
2023/09/30 06:20:50;;;;;;;18.42;14.55;;;;;;;15.89;100.00;100682.34;4995102;28;20018;-69
2023/09/30 06:23:16;;;;;;;22.03;15.23;;;;;;;16.00;100.00;100697.91;4995144;28;20113;-68
2023/09/30 06:25:43;;;;;;;16.85;13.32;;;;;;;15.95;100.00;100681.56;4997776;28;20137;-69
2023/09/30 06:28:09;;;;;;;20.90;13.77;;;;;;;15.97;100.00;100674.13;4996732;28;20034;-67
2023/09/30 06:30:35;;;;;;;22.88;14.45;;;;;;;15.98;100.00;100660.50;4995845;28;20026;-70
2023/09/30 06:33:01;;;;;;;20.20;14.85;;;;;;;15.75;100.00;100620.53;4993765;28;20355;-69
2023/09/30 06:35:29;;;;;;;22.45;16.10;;;;;;;16.11;100.00;100671.28;4993034;28;20031;-68
2023/09/30 06:37:55;;;;;;;19.55;14.88;;;;;;;16.13;100.00;100668.41;4994643;28;20102;-68
2023/09/30 06:40:20;;;;;;;20.73;13.98;;;;;;;16.04;100.00;100653.50;4994653;28;20085;-69
2023/09/30 06:42:46;;;;;;;22.17;14.30;;;;;;;16.06;100.00;100651.44;4992717;28;20462;-70
2023/09/30 06:45:12;;;;;;;19.17;14.90;;;;;;;16.15;100.00;100666.34;4995496;28;20033;-68
2023/09/30 06:47:41;;;;;;;24.10;14.93;;;;;;;16.09;100.00;100656.41;4995033;28;20026;-67
2023/09/30 06:50:12;;;;;;;18.40;14.60;;;;;;;16.07;100.00;100648.56;4997102;28;20490;-68
2023/09/30 06:52:42;;;;;;;24.45;15.32;;;;;;;15.97;100.00;100623.09;4996187;28;20038;-72
2023/09/30 06:55:09;;;;;;;15.85;13.68;;;;;;;16.21;100.00;100644.06;4993601;28;20042;-71
2023/09/30 06:57:36;;;;;;;20.45;13.63;;;;;;;16.07;100.00;100623.53;4992237;28;20034;-71
2023/09/30 07:00:09;;;;;;;18.77;14.75;;;;;;;16.27;100.00;100637.03;4993152;28;20033;-72
2023/09/30 07:02:41;;;;;;;18.63;14.00;;;;;;;16.32;100.00;100637.25;4993701;28;20030;-70
2023/09/30 07:05:12;;;;;;;23.23;13.82;;;;;;;16.39;100.00;100635.41;4993655;28;20076;-73
2023/09/30 07:07:39;;;;;;;17.65;12.98;;;;;;;15.39;100.00;100461.59;4993271;28;20037;-68
2023/09/30 07:10:08;;;;;;;20.27;14.10;;;;;;;16.28;100.00;100607.28;4993252;28;20426;-68
2023/09/30 07:12:35;;;;;;;21.48;14.45;;;;;;;16.40;100.00;100619.06;4993320;28;20042;-67
2023/09/30 07:15:02;;;;;;;20.70;13.63;;;;;;;16.36;100.00;100620.53;4993239;28;20030;-65
2023/09/30 07:17:33;;;;;;;23.20;13.65;;;;;;;16.38;100.00;100628.38;4993580;28;20112;-67
2023/09/30 07:19:59;;;;;;;20.20;14.48;;;;;;;16.33;100.00;100610.19;4993355;28;20521;-66
2023/09/30 07:22:25;;;;;;;21.90;13.95;;;;;;;16.38;100.00;100623.84;4993065;28;20026;-69
2023/09/30 07:24:50;;;;;;;17.35;13.35;;;;;;;16.41;100.00;100620.72;4992965;28;20039;-64
2023/09/30 07:27:16;;;;;;;22.85;14.10;;;;;;;16.31;100.00;100603.34;4993607;28;20057;-65
2023/09/30 07:29:44;;;;;;;21.20;12.82;;;;;;;16.38;100.00;100613.09;4992875;28;20500;-67
2023/09/30 07:32:09;;;;;;;22.50;14.82;;;;;;;16.40;100.00;100610.19;4993050;28;20030;-68
2023/09/30 07:34:35;;;;;;;20.58;13.40;;;;;;;16.40;100.00;100611.00;4976192;28;20030;-69
2023/09/30 07:37:01;;;;;;;20.73;14.07;;;;;;;16.35;100.00;100612.66;4992907;28;20088;-66
2023/09/30 07:39:26;;;;;;;20.10;13.52;;;;;;;16.32;100.00;100608.53;4992762;28;20026;-67
2023/09/30 07:41:52;;;;;;;18.63;14.18;;;;;;;15.98;100.00;100557.63;4992750;28;20045;-70
2023/09/30 07:44:17;;;;;;;20.02;13.02;;;;;;;16.25;100.00;100599.63;4993082;28;20026;-67
2023/09/30 07:46:43;;;;;;;21.13;14.25;;;;;;;16.32;100.00;100597.78;4992967;28;20040;-67
2023/09/30 07:49:10;;;;;;;19.52;13.20;;;;;;;16.41;100.00;100590.34;4986542;28;20057;-67
2023/09/30 07:51:36;;;;;;;15.32;12.65;;;;;;;16.53;100.00;100577.13;4973450;28;20035;-67
2023/09/30 07:54:03;;;;;;;21.00;14.02;;;;;;;16.66;100.00;100577.16;4989198;28;20037;-69
2023/09/30 07:56:29;;;;;;;17.30;12.05;;;;;;;16.81;100.00;100571.59;4991798;28;20041;-67
2023/09/30 07:58:54;;;;;;;15.75;12.82;;;;;;;16.93;100.00;100561.84;4992623;28;20030;-68
2023/09/30 08:01:20;;;;;;;26.80;12.88;;;;;;;17.18;100.00;100575.47;4992925;28;20026;-68
2023/09/30 08:03:46;;;;;;;20.83;12.18;;;;;;;17.38;100.00;100554.72;4994253;28;20031;-71
2023/09/30 08:06:11;;;;;;;22.00;12.65;;;;;;;17.73;100.00;100567.88;4994661;28;20469;-70
2023/09/30 08:08:38;;;;;;;15.43;10.63;;;;;;;17.91;100.00;100562.56;4994769;28;20025;-69
2023/09/30 08:11:04;;;;;;;17.63;10.75;;;;;;;17.98;100.00;100552.63;4992900;28;20441;-67
2023/09/30 08:13:32;;;;;;;17.45;11.23;;;;;;;17.94;100.00;100552.22;4993095;28;20034;-68
2023/09/30 08:15:58;;;;;;;16.95;10.50;;;;;;;18.04;100.00;100565.22;4992032;28;20533;-68
2023/09/30 08:18:24;;;;;;;23.45;16.65;;;;;;;17.93;100.00;100544.34;4992049;28;20034;-69
2023/09/30 08:20:49;;;;;;;16.35;10.95;;;;;;;17.91;100.00;100549.09;4992687;28;20025;-68
2023/09/30 08:23:15;;;;;;;14.32;9.88;;;;;;;17.81;100.00;100549.59;4994124;28;20113;-67
2023/09/30 08:25:41;;;;;;;17.25;10.20;;;;;;;17.14;100.00;100443.22;4992410;28;20046;-69
2023/09/30 08:28:09;;;;;;;15.80;10.48;;;;;;;17.37;100.00;100499.22;4996475;28;20072;-70
2023/09/30 08:30:35;;;;;;;14.35;10.57;;;;;;;17.87;100.00;100550.59;4997335;28;20052;-66
2023/09/30 08:33:03;;;;;;;15.60;10.68;;;;;;;18.02;100.00;100539.53;5000957;28;20385;-68
2023/09/30 08:35:29;;;;;;;12.63;10.40;;;;;;;18.18;100.00;100534.44;4999898;28;20061;-66
2023/09/30 08:37:55;;;;;;;21.23;12.40;;;;;;;18.34;100.00;100529.56;4998714;28;20084;-69
2023/09/30 08:40:21;;;;;;;14.75;10.18;;;;;;;18.44;100.00;100528.03;4982107;28;20032;-66
2023/09/30 08:42:53;;;;;;;19.15;10.10;;;;;;;18.34;100.00;100479.16;4999212;28;20089;-66
2023/09/30 08:45:19;;;;;;;26.60;18.42;;;;;;;18.66;100.00;100504.22;4997826;28;20119;-69
2023/09/30 08:47:48;;;;;;;17.20;9.25;;;;;;;18.74;100.00;100506.63;4997609;28;20078;-70
2023/09/30 08:50:16;;;;;;;19.83;13.75;;;;;;;19.06;100.00;100514.59;4997655;28;20041;-66
2023/09/30 08:52:44;;;;;;;17.52;10.38;;;;;;;19.18;100.00;100507.44;4997343;28;20030;-66
2023/09/30 08:55:11;;;;;;;15.48;8.95;;;;;;;19.14;100.00;100468.44;4996781;28;20034;-68
2023/09/30 08:57:39;;;;;;;12.25;8.48;;;;;;;19.55;100.00;100518.22;4996123;28;20030;-69
2023/09/30 09:00:06;;;;;;;13.55;9.88;;;;;;;19.65;100.00;100500.41;4996203;28;20088;-66
2023/09/30 09:02:35;;;;;;;12.03;8.50;;;;;;;19.66;99.87;100506.66;4996328;28;20037;-68
2023/09/30 09:05:02;;;;;;;11.00;8.48;;;;;;;19.48;98.78;100483.19;4997082;28;20581;-66
2023/09/30 09:07:30;;;;;;;11.75;8.30;;;;;;;19.46;99.35;100472.59;4996975;28;20117;-68
2023/09/30 09:10:22;;;;;;;13.43;8.75;;;;;;;19.56;100.00;100484.75;4996259;28;20030;-73
2023/09/30 09:12:55;;;;;;;14.18;9.05;;;;;;;19.45;100.00;100479.06;4993240;28;20533;-69
2023/09/30 09:15:28;;;;;;;12.57;7.70;;;;;;;19.35;100.00;100475.22;4996374;28;20421;-67
2023/09/30 09:17:54;;;;;;;10.85;7.20;;;;;;;19.18;100.00;100469.63;4996194;28;20022;-67
2023/09/30 09:20:22;;;;;;;8.02;6.53;;;;;;;19.03;100.00;100434.09;4995861;28;20029;-68
2023/09/30 09:22:54;;;;;;;9.73;6.60;;;;;;;19.28;100.00;100464.53;4996130;28;20053;-71
2023/09/30 09:25:24;;;;;;;10.05;6.57;;;;;;;19.41;100.00;100477.03;4996451;28;20046;-67
2023/09/30 09:27:54;;;;;;;8.00;7.20;;;;;;;19.42;100.00;100476.81;4994586;28;20038;-68
2023/09/30 09:30:27;;;;;;;11.77;7.63;;;;;;;19.28;100.00;100472.63;4996127;28;20045;-69
2023/09/30 09:32:59;;;;;;;12.55;8.05;;;;;;;19.22;100.00;100462.72;4995911;28;20041;-70
2023/09/30 09:35:32;;;;;;;9.50;6.75;;;;;;;19.26;100.00;100466.63;4995524;28;20034;-67
2023/09/30 09:38:04;;;;;;;14.25;6.18;;;;;;;19.12;100.00;100454.34;4995248;28;20351;-66
2023/09/30 09:40:34;;;;;;;7.82;6.50;;;;;;;19.06;100.00;100452.53;4995563;28;20062;-70
2023/09/30 09:43:04;;;;;;;11.13;6.88;;;;;;;19.00;100.00;100466.94;4995671;28;20053;-67
2023/09/30 09:45:32;;;;;;;9.85;7.80;;;;;;;18.86;100.00;100453.59;4995730;28;20033;-67
2023/09/30 09:47:58;;;;;;;9.23;6.60;;;;;;;18.76;100.00;100466.75;4995530;28;20026;-67
2023/09/30 09:50:24;;;;;;;11.63;6.95;;;;;;;18.62;100.00;100467.97;4995418;28;20085;-68
2023/09/30 09:52:55;;;;;;;8.45;6.80;;;;;;;18.42;100.00;100453.78;4993756;28;20034;-66
2023/09/30 09:55:23;;;;;;;10.40;6.30;;;;;;;18.40;100.00;100469.38;4995354;28;20142;-68
2023/09/30 09:57:49;;;;;;;9.43;6.70;;;;;;;18.27;100.00;100446.06;4995326;28;20037;-68
2023/09/30 10:00:18;;;;;;;8.40;6.18;;;;;;;18.16;100.00;100433.28;4995256;28;20463;-70
2023/09/30 10:02:48;;;;;;;9.45;6.15;;;;;;;18.36;100.00;100438.50;4995221;28;20035;-70
2023/09/30 10:05:15;;;;;;;11.15;8.93;;;;;;;18.43;100.00;100415.81;4995927;28;20032;-71
2023/09/30 10:07:51;;;;;;;9.32;6.38;;;;;;;18.87;100.00;100463.34;5000495;28;20026;-69
2023/09/30 10:10:19;;;;;;;12.20;7.80;;;;;;;18.86;100.00;100448.19;5000688;28;20030;-70
2023/09/30 10:12:46;;;;;;;11.02;7.25;;;;;;;19.06;100.00;100455.22;4997122;28;20539;-69
2023/09/30 10:15:24;;;;;;;11.73;7.43;;;;;;;19.06;100.00;100463.31;4996590;28;20044;-67
2023/09/30 10:18:10;;;;;;;17.95;8.02;;;;;;;19.08;100.00;100450.44;4981200;28;20172;-67
2023/09/30 10:20:40;;;;;;;16.63;8.77;;;;;;;18.93;100.00;100444.59;4998526;28;20545;-70
2023/09/30 10:23:18;;;;;;;10.50;7.57;;;;;;;18.96;100.00;100457.63;4998992;28;20034;-68
2023/09/30 10:25:47;;;;;;;15.15;8.07;;;;;;;18.71;100.00;100441.50;4994834;28;20084;-70
2023/09/30 10:28:40;;;;;;;9.52;7.20;;;;;;;18.74;100.00;100457.25;4993578;28;20381;-68
2023/09/30 10:31:16;;;;;;;9.38;7.47;;;;;;;18.65;100.00;100454.03;4994506;28;20057;-69
2023/09/30 10:34:00;;;;;;;12.40;8.40;;;;;;;18.65;100.00;100451.31;4994828;28;20030;-67
2023/09/30 10:36:38;;;;;;;11.00;7.45;;;;;;;18.43;100.00;100436.56;4995345;28;20042;-68
2023/09/30 10:39:04;;;;;;;8.32;7.43;;;;;;;18.44;100.00;100438.22;4995239;28;20026;-70
2023/09/30 10:41:38;;;;;;;11.50;7.80;;;;;;;18.45;100.00;100453.34;4997229;28;20033;-67
2023/09/30 10:44:22;;;;;;;11.30;7.97;;;;;;;18.28;100.00;100431.53;4995040;28;20130;-67
2023/09/30 10:46:49;;;;;;;9.57;7.03;;;;;;;18.15;100.00;100421.69;4994908;28;20034;-70
2023/09/30 10:49:38;;;;;;;10.35;7.75;;;;;;;18.19;100.00;100420.19;4993967;28;20030;-67
2023/09/30 10:52:04;;;;;;;12.52;7.20;;;;;;;17.75;100.00;100361.09;4994029;28;20474;-69
2023/09/30 10:54:32;;;;;;;12.23;8.10;;;;;;;18.22;100.00;100438.63;4995076;28;20030;-67
2023/09/30 10:56:59;;;;;;;9.60;7.60;;;;;;;18.25;100.00;100443.59;4994798;28;20385;-70
2023/09/30 10:59:27;;;;;;;15.00;8.32;;;;;;;18.11;100.00;100428.56;4994967;28;20026;-69
2023/09/30 11:01:53;;;;;;;10.98;7.88;;;;;;;18.11;100.00;100425.84;4996464;28;20122;-68
2023/09/30 11:04:19;;;;;;;10.00;6.65;;;;;;;18.15;100.00;100437.84;4995478;28;20061;-66
2023/09/30 11:06:46;;;;;;;8.88;6.28;;;;;;;18.09;100.00;100427.13;4996149;28;20030;-68